Airfield :
LOGIN :

Register | Disclaimer

   EN    FR    IT 

 










Legend :    VFR   Marginal VFR   IFR   Intensive IFR   Very Intensive IFR
Visi :
Ceiling :
>= 8 km
>= 3000ft
5 to 8 km
1000 to 3000 ft
1500m to 5 km
500 to 1000 ft
800 to 1500m
200 to 500 ft
< 800m
< 200 ft
Symbols :   Thunderstorms  Fog  Heavy snow  Heavy precipitations  Wind > 20 kt
SIGMETs :     Misc.  Thunderstorms  Icing  Turbulence  Mountain Waves  Volcanic Ashes







- Airport Elevation : 96 ft
- IATA code : REG


LICR - Reggio Calabria

CURRENT METAR :
  • 231450Z 19003KT 9999 SCT015 BKN040 13/12 Q1018 RERA

EXPIRED METARs :
  • 231350Z 20005KT 6000 RA SCT020 BKN040 13/12 Q1018
  • 231250Z VRB02KT 7000 RA SCT020 BKN040 14/12 Q1017

TAF TAF LICR
Valid from the 23 at 12:00 until the 24 at 12:00 UTC


231100Z 2312/2412 01008KT 9999 SCT030
TEMPO 2312/2315 RA
No reported NOTAMs for that airfield.
2 SIGMETs reported for the Roma FIR (LIRR) :
 
Severe turbulence
LIRR SIGMET 5 VALID 231600/232000 LIIB
LIRR ROMA FIR SEV TURB FCST E OF LINE N4336 E01207 - N3725 E01119 FL220/390 MOV E NC=
Severe turbulence
LIRR SIGMET 4 VALID 231200/231600 LIIB
LIRR ROMA FIR SEV TURB FCST WI N4331 E01324 - N4342 E01119 - N4337 E01022 - N3759 E01019 - N3730 E01131 - N3629 E01129 - N3629 E01336 - N4127 E01422 - N4254 E01304 - N4331 E01324 FL230/390 MOV E NC=



MET'MAP, your aeronautical weather chart ! - Copyright ORBIFLY December 2007 - Disclaimer

ORBIFLY MET'MAP TEAM :

Programming & Development : Alexandra Zaïnal
Concept & Development : Baudouin d'Aumeries
Co-Development & Prog : Marc-Olivier Méhu
Technical & hardware support : Manuel Goepfert

Contact : metmap@orbifly.com




SOURCES & CREDITS :

   NOAA